Time;durP1;ratioP1;P1;durP2;ratioP2;P2;SDS_P1;SDS_P2;PMS_P1;PMS_P2;Temp;Humidity;BMP_temperature;BMP_pressure;BME280_temperature;BME280_humidity;BME280_pressure;Samples;Min_cycle;Max_cycle;Signal;HPM_P1;HPM_P2
2023/10/15 00:03:06;;;;;;;4.80;1.40;;;;;;;10.61;100.00;96511.41;4929492;28;104156;-77
2023/10/15 00:05:43;;;;;;;4.23;1.53;;;;;;;10.60;100.00;96509.81;4930780;28;102305;-77
2023/10/15 00:08:23;;;;;;;4.73;1.73;;;;;;;10.60;100.00;96515.97;4930908;28;104182;-77
2023/10/15 00:10:51;;;;;;;4.00;1.60;;;;;;;10.64;100.00;96510.94;4930379;28;105365;-77
2023/10/15 00:13:28;;;;;;;3.00;1.30;;;;;;;10.68;100.00;96514.72;4930607;28;102039;-77
2023/10/15 00:16:12;;;;;;;4.50;1.53;;;;;;;10.69;100.00;96509.13;4931592;28;101922;-77
2023/10/15 00:18:42;;;;;;;4.33;1.70;;;;;;;10.63;100.00;96515.44;4933133;28;105306;-77
2023/10/15 00:21:25;;;;;;;2.60;1.53;;;;;;;10.69;100.00;96500.38;4930128;28;105328;-77
2023/10/15 00:24:02;;;;;;;2.47;1.30;;;;;;;10.70;100.00;96505.44;4929691;28;105531;-77
2023/10/15 00:26:44;;;;;;;3.47;1.63;;;;;;;10.71;100.00;96508.91;4930878;28;102247;-77
2023/10/15 00:29:24;;;;;;;4.80;1.70;;;;;;;10.66;100.00;96509.66;4932212;28;102911;-77
2023/10/15 00:32:03;;;;;;;3.27;1.30;;;;;;;10.60;100.00;96496.53;4929892;28;105260;-77
2023/10/15 00:34:39;;;;;;;4.57;1.60;;;;;;;10.64;100.00;96495.00;4931999;28;101761;-77
2023/10/15 00:37:08;;;;;;;3.47;1.30;;;;;;;10.58;100.00;96503.97;4930418;28;105719;-77
2023/10/15 00:39:41;;;;;;;3.53;1.63;;;;;;;10.57;100.00;96510.34;4929708;28;105546;-76
2023/10/15 00:42:11;;;;;;;4.57;1.37;;;;;;;10.54;100.00;96516.94;4934036;28;101941;-76
2023/10/15 00:44:38;;;;;;;4.47;1.33;;;;;;;10.58;100.00;96511.94;4929621;28;105338;-76
2023/10/15 00:47:15;;;;;;;5.60;1.77;;;;;;;10.62;100.00;96508.53;4930559;28;101974;-76
2023/10/15 00:49:43;;;;;;;7.30;1.57;;;;;;;10.58;100.00;96496.75;4930260;28;104888;-76
2023/10/15 00:52:11;;;;;;;2.50;1.30;;;;;;;10.49;100.00;96502.78;4930666;28;103303;-76
2023/10/15 00:54:44;;;;;;;2.77;1.97;;;;;;;10.51;100.00;96500.66;4930396;28;101793;-77
2023/10/15 00:57:41;;;;;;;3.13;1.70;;;;;;;10.50;100.00;96499.06;4930221;28;105108;-77
2023/10/15 01:00:37;;;;;;;3.17;1.50;;;;;;;10.56;100.00;96503.38;4929073;28;105202;-77
2023/10/15 01:03:13;;;;;;;2.77;1.53;;;;;;;10.55;100.00;96501.78;4929746;28;102046;-77
2023/10/15 01:05:46;;;;;;;3.60;1.40;;;;;;;10.53;100.00;96498.56;4932802;28;105390;-77
2023/10/15 01:08:31;;;;;;;3.23;1.30;;;;;;;10.49;100.00;96500.09;4929625;28;101886;-77
2023/10/15 01:11:17;;;;;;;5.13;1.70;;;;;;;10.47;100.00;96494.25;4931508;28;102533;-77
2023/10/15 01:13:45;;;;;;;2.37;1.40;;;;;;;10.39;100.00;96498.13;4929267;28;104919;-77
2023/10/15 01:16:36;;;;;;;2.63;1.20;;;;;;;10.44;100.00;96494.72;4929491;28;101998;-77
2023/10/15 01:19:15;;;;;;;2.87;1.50;;;;;;;10.48;100.00;96493.97;4928891;28;103849;-77
2023/10/15 01:21:50;;;;;;;4.43;1.70;;;;;;;10.46;100.00;96495.31;4929502;28;105182;-76
2023/10/15 01:24:19;;;;;;;4.43;1.67;;;;;;;10.49;100.00;96497.44;4929852;28;102642;-76
2023/10/15 01:27:10;;;;;;;5.67;1.73;;;;;;;10.50;100.00;96496.41;4929976;28;105568;-76
2023/10/15 01:29:50;;;;;;;3.80;1.60;;;;;;;10.41;100.00;96493.34;4936058;28;104549;-76
2023/10/15 01:32:22;;;;;;;2.60;1.60;;;;;;;10.43;100.00;96495.78;4933342;28;105494;-76
2023/10/15 01:35:01;;;;;;;5.40;2.00;;;;;;;10.34;100.00;96500.72;4932116;28;105506;-76
2023/10/15 01:37:45;;;;;;;4.77;1.30;;;;;;;10.27;100.00;96493.97;4933054;28;101856;-76
2023/10/15 01:40:36;;;;;;;2.03;1.60;;;;;;;10.26;100.00;96497.69;4932902;28;105281;-79
2023/10/15 01:43:12;;;;;;;3.73;1.87;;;;;;;10.28;100.00;96490.25;4932450;28;105829;-79
2023/10/15 01:45:41;;;;;;;3.67;1.57;;;;;;;10.28;100.00;96490.25;4932914;28;102008;-79
2023/10/15 01:48:24;;;;;;;3.40;1.60;;;;;;;10.19;100.00;96494.41;4933159;28;105113;-79
2023/10/15 01:50:51;;;;;;;3.00;1.43;;;;;;;10.18;100.00;96484.81;4935736;28;105552;-79
2023/10/15 01:53:23;;;;;;;2.67;1.30;;;;;;;10.19;100.00;96491.75;4932844;28;105179;-79
2023/10/15 01:55:59;;;;;;;3.53;1.63;;;;;;;10.19;100.00;96481.91;4932161;28;104135;-77
2023/10/15 01:58:39;;;;;;;3.50;1.60;;;;;;;10.20;100.00;96490.69;4932878;28;101881;-77
2023/10/15 02:01:27;;;;;;;3.63;1.70;;;;;;;10.22;100.00;96480.63;4933005;28;104102;-77
2023/10/15 02:04:27;;;;;;;3.50;1.40;;;;;;;10.16;100.00;96482.41;4933572;28;103084;-77
2023/10/15 02:07:14;;;;;;;6.47;1.40;;;;;;;10.14;100.00;96491.69;4928730;28;101931;-80
2023/10/15 02:10:03;;;;;;;4.37;1.97;;;;;;;10.15;100.00;96485.31;4931053;28;104912;-79
2023/10/15 02:12:32;;;;;;;3.03;1.43;;;;;;;10.14;100.00;96486.34;4932990;28;103287;-76
2023/10/15 02:15:14;;;;;;;3.57;1.40;;;;;;;10.07;100.00;96485.72;4936211;28;101911;-76
2023/10/15 02:17:43;;;;;;;1.23;1.13;;;;;;;10.10;100.00;96487.91;4933328;28;102833;-76
2023/10/15 02:20:12;;;;;;;2.60;1.30;;;;;;;10.10;100.00;96485.22;4932030;28;101929;-76
2023/10/15 02:22:40;;;;;;;2.13;1.17;;;;;;;10.07;100.00;96485.72;4932332;28;103747;-76
2023/10/15 02:25:08;;;;;;;4.40;1.40;;;;;;;10.05;100.00;96483.31;4931690;28;105776;-76
2023/10/15 02:27:35;;;;;;;2.00;1.03;;;;;;;10.00;100.00;96482.41;4932109;28;102616;-78
2023/10/15 02:30:16;;;;;;;2.27;1.30;;;;;;;9.98;100.00;96479.19;4932279;28;105353;-78
2023/10/15 02:32:57;;;;;;;2.63;1.30;;;;;;;9.97;100.00;96481.03;4931920;28;103256;-78
2023/10/15 02:35:31;;;;;;;2.90;1.30;;;;;;;9.95;100.00;96485.78;4933220;28;101850;-78
2023/10/15 02:38:17;;;;;;;3.73;1.30;;;;;;;9.94;100.00;96488.69;4934327;28;105136;-78
2023/10/15 02:41:06;;;;;;;1.83;1.23;;;;;;;9.83;100.00;96500.22;4932361;28;101957;-78
2023/10/15 02:43:40;;;;;;;2.40;1.30;;;;;;;9.74;100.00;96496.34;4932273;28;104882;-78
2023/10/15 02:46:22;;;;;;;4.20;1.20;;;;;;;9.66;100.00;96502.84;4931586;28;104640;-78
2023/10/15 02:48:53;;;;;;;2.10;1.40;;;;;;;9.56;100.00;96497.41;4932023;28;101887;-78
2023/10/15 02:51:23;;;;;;;3.67;1.50;;;;;;;9.56;100.00;96504.56;4933676;28;102650;-78
2023/10/15 02:53:52;;;;;;;2.37;1.53;;;;;;;9.46;100.00;96505.19;4931457;28;105140;-78
2023/10/15 02:56:20;;;;;;;3.33;1.50;;;;;;;9.45;100.00;96510.75;4931732;28;101956;-78
2023/10/15 02:58:54;;;;;;;2.87;1.10;;;;;;;9.42;100.00;96505.91;4931942;28;105319;-78
2023/10/15 03:01:26;;;;;;;5.73;1.87;;;;;;;9.31;100.00;96509.44;4934560;28;105414;-80
2023/10/15 03:04:07;;;;;;;3.90;1.70;;;;;;;9.26;100.00;96514.69;4933473;28;102517;-80
2023/10/15 03:06:34;;;;;;;3.77;1.30;;;;;;;9.27;100.00;96513.63;4931173;28;105280;-80
2023/10/15 03:09:02;;;;;;;2.33;1.40;;;;;;;9.20;100.00;96513.75;4932841;28;101891;-79
2023/10/15 03:11:32;;;;;;;4.53;1.50;;;;;;;9.16;100.00;96506.53;4931785;28;105357;-79
2023/10/15 03:14:01;;;;;;;3.43;1.33;;;;;;;9.18;100.00;96512.38;4930774;28;105536;-79
2023/10/15 03:16:32;;;;;;;5.43;1.47;;;;;;;9.18;100.00;96512.38;4931620;28;101944;-80
2023/10/15 03:19:09;;;;;;;4.17;1.63;;;;;;;9.10;100.00;96513.56;4931011;28;105233;-79
2023/10/15 03:21:39;;;;;;;1.73;1.30;;;;;;;9.11;100.00;96504.56;4931279;28;105530;-79
2023/10/15 03:24:08;;;;;;;5.17;1.77;;;;;;;9.09;100.00;96505.84;4936478;28;101729;-79
2023/10/15 03:26:35;;;;;;;3.13;1.20;;;;;;;9.06;100.00;96514.31;4930821;28;104060;-79
2023/10/15 03:29:13;;;;;;;4.10;1.63;;;;;;;9.11;100.00;96509.88;4931704;28;101834;-80
2023/10/15 03:31:46;;;;;;;3.17;1.77;;;;;;;9.09;100.00;96505.84;4931173;28;104855;-77
2023/10/15 03:34:21;;;;;;;4.00;1.53;;;;;;;9.07;100.00;96513.25;4930648;28;105193;-77
2023/10/15 03:36:50;;;;;;;4.73;1.80;;;;;;;9.05;100.00;96510.03;4931339;28;101825;-77
2023/10/15 03:39:25;;;;;;;2.50;1.60;;;;;;;9.06;100.00;96509.78;4931525;28;104873;-77
2023/10/15 03:42:09;;;;;;;3.60;1.50;;;;;;;9.15;100.00;96521.63;4930743;28;105783;-77
2023/10/15 03:44:37;;;;;;;2.70;1.37;;;;;;;9.14;100.00;96520.03;4931204;28;101884;-77
2023/10/15 03:47:06;;;;;;;2.47;1.43;;;;;;;9.20;100.00;96508.47;4933968;28;104937;-77
2023/10/15 03:49:35;;;;;;;2.67;1.20;;;;;;;9.21;100.00;96501.31;4930639;28;102012;-77
2023/10/15 03:52:07;;;;;;;6.03;2.53;;;;;;;9.22;100.00;96509.00;4931184;28;105179;-79
2023/10/15 03:54:37;;;;;;;3.30;1.60;;;;;;;9.27;100.00;96503.00;4930495;28;105179;-79
2023/10/15 03:57:06;;;;;;;2.33;1.20;;;;;;;9.30;100.00;96508.63;4931020;28;101929;-79
2023/10/15 03:59:41;;;;;;;4.33;1.60;;;;;;;9.26;100.00;96507.50;4930985;28;104318;-79
2023/10/15 04:02:11;;;;;;;2.60;1.40;;;;;;;9.29;100.00;96499.06;4946737;28;105430;-79
2023/10/15 04:04:38;;;;;;;3.77;1.50;;;;;;;9.38;100.00;96504.78;4931043;28;101852;-78
2023/10/15 04:09:57;;;;;;;2.27;1.40;;;;;;;9.31;100.00;96493.50;4929634;28;102032;-79
2023/10/15 04:12:28;;;;;;;3.97;1.40;;;;;;;9.30;100.00;96494.56;4930807;28;105496;-81
2023/10/15 04:15:03;;;;;;;4.20;1.67;;;;;;;9.30;100.00;96492.72;4930241;28;105875;-81
2023/10/15 04:17:45;;;;;;;3.37;1.63;;;;;;;9.36;100.00;96490.94;4930567;28;101909;-82
2023/10/15 04:20:26;;;;;;;2.83;1.60;;;;;;;9.31;100.00;96488.19;4930416;28;105696;-79
2023/10/15 04:22:59;;;;;;;2.57;1.30;;;;;;;9.26;100.00;96491.56;4931519;28;101767;-80
2023/10/15 04:25:36;;;;;;;2.60;1.10;;;;;;;9.31;100.00;96482.88;4930532;28;102024;-80
2023/10/15 04:28:15;;;;;;;1.67;1.30;;;;;;;9.30;100.00;96490.06;4930558;28;106171;-80
2023/10/15 04:30:54;;;;;;;2.20;1.50;;;;;;;9.31;100.00;96483.72;4932926;28;104579;-80
2023/10/15 04:33:25;;;;;;;2.50;1.50;;;;;;;9.33;100.00;96478.94;4930019;28;106168;-78
2023/10/15 04:35:52;;;;;;;5.10;1.33;;;;;;;9.28;100.00;96480.72;4931603;28;101783;-76
2023/10/15 04:38:22;;;;;;;2.73;1.10;;;;;;;9.34;100.00;96471.81;4931712;28;102132;-76
2023/10/15 04:40:59;;;;;;;2.20;1.20;;;;;;;9.36;100.00;96467.88;4930431;28;105413;-76
2023/10/15 04:43:27;;;;;;;2.77;1.27;;;;;;;9.31;100.00;96472.28;4929714;28;105602;-76
2023/10/15 04:45:55;;;;;;;2.67;1.23;;;;;;;9.30;100.00;96466.19;4930226;28;102436;-76
2023/10/15 04:48:27;;;;;;;3.83;1.60;;;;;;;9.27;100.00;96471.16;4930268;28;105179;-77
2023/10/15 04:51:05;;;;;;;6.50;1.40;;;;;;;9.26;100.00;96470.34;4929551;28;105849;-76
2023/10/15 04:53:32;;;;;;;2.80;1.40;;;;;;;9.28;100.00;96473.56;4933564;28;101866;-76
2023/10/15 04:56:04;;;;;;;4.57;1.40;;;;;;;9.32;100.00;96476.56;4931046;28;103105;-76
2023/10/15 04:58:36;;;;;;;2.80;1.13;;;;;;;9.34;100.00;96469.16;4929942;28;102036;-77
2023/10/15 05:01:05;;;;;;;3.33;1.10;;;;;;;9.32;100.00;96476.56;4929584;28;104734;-81
2023/10/15 05:03:38;;;;;;;2.90;1.33;;;;;;;9.33;100.00;96475.50;4930679;28;101859;-80
2023/10/15 05:06:10;;;;;;;2.90;1.60;;;;;;;9.28;100.00;96475.41;4931316;28;103363;-80
2023/10/15 05:08:40;;;;;;;4.10;1.40;;;;;;;9.26;100.00;96472.22;4931383;28;101725;-80
2023/10/15 05:11:21;;;;;;;3.17;1.57;;;;;;;9.17;100.00;96471.78;4929292;28;105184;-80
2023/10/15 05:14:04;;;;;;;3.97;1.60;;;;;;;9.17;100.00;96468.34;4929685;28;102009;-80
2023/10/15 05:16:33;;;;;;;3.60;1.30;;;;;;;9.18;100.00;96467.28;4932835;28;105378;-81
2023/10/15 05:19:02;;;;;;;3.53;1.40;;;;;;;9.23;100.00;96470.03;4929387;28;101931;-81
2023/10/15 05:21:32;;;;;;;1.97;1.30;;;;;;;9.25;100.00;96465.28;4930023;28;102606;-76
2023/10/15 05:24:06;;;;;;;3.63;1.43;;;;;;;9.25;100.00;96467.94;4930687;28;103261;-79
2023/10/15 05:26:33;;;;;;;2.87;1.50;;;;;;;9.17;100.00;96476.28;4929699;28;101982;-79
2023/10/15 05:29:00;;;;;;;5.23;1.53;;;;;;;9.28;100.00;96470.91;4929870;28;104844;-80
2023/10/15 05:31:27;;;;;;;2.27;1.30;;;;;;;9.32;100.00;96473.91;4929197;28;103831;-80
2023/10/15 05:34:01;;;;;;;1.97;1.10;;;;;;;9.34;100.00;96475.28;4931076;28;102154;-80
2023/10/15 05:36:38;;;;;;;2.60;1.40;;;;;;;9.32;100.00;96476.56;4929603;28;105936;-80
2023/10/15 05:39:15;;;;;;;4.37;1.70;;;;;;;9.38;100.00;96464.97;4933725;28;102711;-79
2023/10/15 05:41:43;;;;;;;2.23;1.20;;;;;;;9.36;100.00;96470.53;4929345;28;105616;-78
2023/10/15 05:44:10;;;;;;;3.43;1.30;;;;;;;9.41;100.00;96467.97;4928985;28;104018;-78
2023/10/15 05:46:41;;;;;;;4.20;1.50;;;;;;;9.39;100.00;96478.00;4929497;28;101959;-78
2023/10/15 05:49:13;;;;;;;2.27;1.10;;;;;;;9.46;100.00;96478.66;4929795;28;104253;-79
2023/10/15 05:51:47;;;;;;;4.10;1.17;;;;;;;9.44;100.00;96483.38;4930348;28;102978;-78
2023/10/15 05:54:18;;;;;;;2.23;1.20;;;;;;;9.38;100.00;96489.66;4929722;28;101861;-78
2023/10/15 05:56:53;;;;;;;3.37;1.30;;;;;;;9.41;100.00;96480.41;4928953;28;105438;-79
2023/10/15 05:59:20;;;;;;;1.83;1.30;;;;;;;9.40;100.00;96481.47;4928721;28;104607;-78
2023/10/15 06:01:47;;;;;;;2.83;1.20;;;;;;;9.38;100.00;96486.22;4933952;28;101746;-78
2023/10/15 06:04:14;;;;;;;5.33;1.43;;;;;;;9.34;100.00;96493.84;4929777;28;105744;-79
2023/10/15 06:06:53;;;;;;;2.17;1.13;;;;;;;9.28;100.00;96489.47;4930307;28;101965;-78
2023/10/15 06:09:22;;;;;;;2.13;1.33;;;;;;;9.43;100.00;96491.59;4931707;28;103060;-78
2023/10/15 06:11:49;;;;;;;4.23;1.43;;;;;;;9.44;100.00;96496.66;4929213;28;105769;-79
2023/10/15 06:14:17;;;;;;;6.20;1.50;;;;;;;9.50;100.00;96501.03;4933695;28;101871;-77
2023/10/15 06:16:44;;;;;;;3.30;1.23;;;;;;;9.62;100.00;96506.25;4933616;28;105245;-77
2023/10/15 06:19:11;;;;;;;3.47;1.17;;;;;;;9.66;100.00;96496.75;4932403;28;105677;-77
2023/10/15 06:21:39;;;;;;;2.03;1.03;;;;;;;9.68;100.00;96503.44;4937874;28;101797;-77
2023/10/15 06:24:10;;;;;;;3.77;1.40;;;;;;;9.73;100.00;96508.00;4932593;28;105776;-77
2023/10/15 06:26:37;;;;;;;3.87;1.40;;;;;;;9.72;100.00;96512.53;4933059;28;101758;-77
2023/10/15 06:29:04;;;;;;;5.37;1.37;;;;;;;9.75;100.00;96505.94;4933087;28;104943;-77
2023/10/15 06:31:31;;;;;;;3.70;1.20;;;;;;;9.82;100.00;96519.84;4932639;28;103459;-77
2023/10/15 06:33:58;;;;;;;4.40;1.67;;;;;;;9.82;100.00;96506.56;4933194;28;101866;-77
2023/10/15 06:36:25;;;;;;;5.50;1.70;;;;;;;9.78;100.00;96511.56;4934686;28;102515;-77
2023/10/15 06:38:52;;;;;;;4.70;3.50;;;;;;;9.75;100.00;96517.34;4948888;28;105325;-77
2023/10/15 06:41:20;;;;;;;7.23;4.03;;;;;;;9.80;100.00;96521.94;4932998;28;102012;-77
2023/10/15 06:43:48;;;;;;;7.73;4.83;;;;;;;9.77;100.00;96522.44;4935760;28;105586;-77
2023/10/15 06:46:16;;;;;;;6.37;5.10;;;;;;;9.79;100.00;96523.78;4934269;28;101820;-77
2023/10/15 06:48:43;;;;;;;4.30;3.77;;;;;;;9.82;100.00;96525.16;4933143;28;105242;-77
2023/10/15 06:51:12;;;;;;;3.13;2.30;;;;;;;9.84;100.00;96531.03;4932238;28;105054;-77
2023/10/15 06:53:39;;;;;;;2.43;1.30;;;;;;;9.63;100.00;96527.25;4933058;28;101956;-77
2023/10/15 06:56:07;;;;;;;3.70;1.60;;;;;;;9.71;100.00;96531.34;4932872;28;105401;-77
2023/10/15 06:58:35;;;;;;;1.70;1.27;;;;;;;9.79;100.00;96534.41;4932160;28;105530;-77
2023/10/15 07:01:06;;;;;;;3.70;1.70;;;;;;;9.81;100.00;96542.94;4932807;28;101940;-77
2023/10/15 07:03:33;;;;;;;3.37;1.50;;;;;;;9.81;100.00;96539.50;4932960;28;105375;-77
2023/10/15 07:06:00;;;;;;;3.53;1.67;;;;;;;9.73;100.00;96540.69;4935098;28;105736;-77
2023/10/15 07:08:27;;;;;;;2.97;1.47;;;;;;;9.61;100.00;96539.16;4932605;28;105653;-77
2023/10/15 07:10:54;;;;;;;3.13;1.20;;;;;;;9.73;100.00;96539.88;4931805;28;105132;-77
2023/10/15 07:13:21;;;;;;;2.80;1.40;;;;;;;9.76;100.00;96550.03;4932673;28;102008;-77
2023/10/15 07:15:50;;;;;;;3.10;1.27;;;;;;;9.84;100.00;96546.97;4932780;28;105053;-77
2023/10/15 07:18:16;;;;;;;3.07;1.53;;;;;;;9.67;100.00;96539.00;4931987;28;104289;-77
2023/10/15 07:20:43;;;;;;;3.33;1.87;;;;;;;9.73;100.00;96540.69;4932631;28;102280;-77
2023/10/15 07:23:10;;;;;;;2.43;1.60;;;;;;;9.80;100.00;96540.50;4932549;28;105413;-77
2023/10/15 07:25:37;;;;;;;2.93;1.87;;;;;;;9.80;100.00;96543.16;4931760;28;105364;-77
2023/10/15 07:28:05;;;;;;;3.53;2.00;;;;;;;9.84;100.00;96546.97;4935751;28;101701;-78
2023/10/15 07:30:33;;;;;;;5.93;2.70;;;;;;;9.80;100.00;96548.47;4931618;28;105135;-77
2023/10/15 07:33:01;;;;;;;2.60;1.67;;;;;;;9.84;100.00;96549.63;4932250;28;102293;-77
2023/10/15 07:35:30;;;;;;;3.87;1.60;;;;;;;10.02;100.00;96549.38;4932221;28;102971;-77
2023/10/15 07:37:58;;;;;;;4.30;1.90;;;;;;;10.04;100.00;96553.41;4931605;28;105354;-77
2023/10/15 07:40:27;;;;;;;2.23;1.60;;;;;;;9.98;100.00;96553.56;4932055;28;101983;-77
2023/10/15 07:42:58;;;;;;;4.20;1.90;;;;;;;10.13;100.00;96557.28;4932185;28;104889;-77
2023/10/15 07:45:28;;;;;;;3.73;1.80;;;;;;;10.09;100.00;96553.50;4932997;28;102839;-77
2023/10/15 07:47:55;;;;;;;3.57;2.00;;;;;;;10.29;100.00;96560.97;4933304;28;101849;-77
2023/10/15 07:50:24;;;;;;;3.73;1.60;;;;;;;10.31;100.00;96564.19;4934879;28;104542;-77
2023/10/15 07:52:52;;;;;;;4.33;2.17;;;;;;;10.29;100.00;96566.28;4931910;28;101981;-77
2023/10/15 07:55:19;;;;;;;5.23;1.70;;;;;;;10.36;100.00;96556.31;4933187;28;103063;-77
2023/10/15 07:57:47;;;;;;;2.40;1.50;;;;;;;10.41;100.00;96556.38;4915347;28;105788;-77
2023/10/15 08:00:16;;;;;;;3.03;1.40;;;;;;;10.45;100.00;96560.94;4931796;28;102361;-77
2023/10/15 08:02:45;;;;;;;1.70;1.17;;;;;;;10.55;100.00;96560.28;4932023;28;105439;-77
2023/10/15 08:05:12;;;;;;;5.93;2.10;;;;;;;10.51;100.00;96564.47;4932577;28;103303;-77
2023/10/15 08:07:41;;;;;;;3.57;2.17;;;;;;;10.64;100.00;96564.13;4931628;28;102002;-77
2023/10/15 08:10:09;;;;;;;5.13;2.20;;;;;;;10.90;100.00;96558.09;4931761;28;105042;-77
2023/10/15 08:12:37;;;;;;;3.30;1.80;;;;;;;10.98;100.00;96555.78;4934354;28;101956;-77
2023/10/15 08:15:06;;;;;;;5.80;2.40;;;;;;;10.93;100.00;96544.28;4931781;28;104963;-77
2023/10/15 08:17:33;;;;;;;3.10;1.90;;;;;;;11.04;100.00;96544.16;4931041;28;105220;-77
2023/10/15 08:20:03;;;;;;;3.17;1.53;;;;;;;11.19;100.00;96541.66;4931106;28;101944;-77
2023/10/15 08:22:31;;;;;;;1.67;1.40;;;;;;;11.42;100.00;96544.03;4931562;28;104979;-77
2023/10/15 08:25:02;;;;;;;2.63;1.60;;;;;;;11.17;100.00;96542.97;4930859;28;101815;-76
2023/10/15 08:27:29;;;;;;;3.03;1.60;;;;;;;11.31;100.00;96544.16;4931094;28;102209;-76
2023/10/15 08:29:57;;;;;;;3.33;1.43;;;;;;;11.40;100.00;96540.00;4931367;28;103739;-76
2023/10/15 08:32:26;;;;;;;4.30;1.10;;;;;;;11.26;100.00;96538.78;4934054;28;105196;-76
2023/10/15 08:34:53;;;;;;;2.67;1.43;;;;;;;11.19;100.00;96530.19;4931180;28;104232;-76
2023/10/15 08:37:20;;;;;;;5.27;1.60;;;;;;;11.42;100.00;96532.56;4929795;28;106049;-76
2023/10/15 08:39:47;;;;;;;4.33;1.37;;;;;;;11.33;100.00;96534.09;4931229;28;101978;-76
2023/10/15 08:42:23;;;;;;;4.33;1.30;;;;;;;11.63;100.00;96527.22;4932530;28;102731;-76
2023/10/15 08:44:51;;;;;;;2.67;1.27;;;;;;;11.56;100.00;96515.91;4930874;28;105451;-76
2023/10/15 08:47:18;;;;;;;1.63;1.27;;;;;;;11.49;100.00;96515.31;4931067;28;102120;-76
2023/10/15 08:49:50;;;;;;;2.30;1.40;;;;;;;11.43;100.00;96516.34;4931156;28;105258;-76
2023/10/15 08:52:19;;;;;;;4.40;1.30;;;;;;;11.71;100.00;96510.75;4930466;28;105077;-76
2023/10/15 08:54:47;;;;;;;3.53;1.40;;;;;;;11.55;100.00;96518.84;4934158;28;101679;-76
2023/10/15 08:57:18;;;;;;;2.27;1.17;;;;;;;11.79;100.00;96512.97;4930784;28;105212;-76
2023/10/15 08:59:46;;;;;;;2.63;1.13;;;;;;;12.39;100.00;96509.91;4931180;28;101720;-76
2023/10/15 09:02:15;;;;;;;2.93;1.20;;;;;;;12.35;100.00;96504.28;4930741;28;105730;-76
2023/10/15 09:04:45;;;;;;;2.50;1.00;;;;;;;12.35;100.00;96501.63;4930535;28;106055;-76
2023/10/15 09:07:14;;;;;;;2.60;1.13;;;;;;;12.24;100.00;96507.94;4930703;28;101921;-76
2023/10/15 09:09:42;;;;;;;1.90;1.03;;;;;;;12.27;100.00;96506.63;4947096;28;103826;-76
2023/10/15 09:12:12;;;;;;;2.83;0.93;;;;;;;12.44;100.00;96509.94;4949875;28;105476;-76
2023/10/15 09:14:43;;;;;;;4.23;1.50;;;;;;;12.45;100.00;96495.53;4949943;28;101960;-76
2023/10/15 09:17:11;;;;;;;3.67;1.23;;;;;;;12.33;100.00;96498.38;4953089;28;105563;-76
2023/10/15 09:19:39;;;;;;;2.33;1.07;;;;;;;12.31;100.00;96499.72;4950002;28;101973;-76
2023/10/15 09:22:07;;;;;;;3.17;1.10;;;;;;;12.03;100.00;96492.06;4950305;28;105269;-76
2023/10/15 09:24:34;;;;;;;3.13;1.43;;;;;;;12.46;100.00;96494.47;4949688;28;105722;-76
2023/10/15 09:27:05;;;;;;;2.20;1.30;;;;;;;12.42;100.00;96493.38;4950109;28;102010;-76
2023/10/15 09:29:32;;;;;;;3.30;1.23;;;;;;;12.34;100.00;96507.19;4950308;28;105279;-76
2023/10/15 09:32:04;;;;;;;2.27;1.20;;;;;;;12.47;100.00;96485.38;4949725;28;104396;-76
2023/10/15 09:34:31;;;;;;;2.33;1.03;;;;;;;12.38;100.00;96479.75;4966361;28;101867;-76
2023/10/15 09:36:59;;;;;;;2.60;1.10;;;;;;;12.44;100.00;96475.25;4951586;28;102671;-76
2023/10/15 09:39:29;;;;;;;3.67;1.83;;;;;;;12.53;100.00;96481.72;4952758;28;105123;-76
2023/10/15 09:41:57;;;;;;;3.10;0.70;;;;;;;12.43;100.00;96473.66;4950235;28;105198;-76
2023/10/15 09:44:25;;;;;;;3.63;1.10;;;;;;;12.35;100.00;96477.63;4965789;28;104251;-76
2023/10/15 09:46:52;;;;;;;1.87;1.00;;;;;;;12.48;100.00;96481.69;4950263;28;101975;-76
2023/10/15 09:49:22;;;;;;;1.30;1.00;;;;;;;12.53;100.00;96489.72;4951942;28;105551;-76
2023/10/15 09:51:50;;;;;;;3.17;1.27;;;;;;;12.41;100.00;96487.25;4952905;28;106586;-76
2023/10/15 09:54:20;;;;;;;1.50;0.90;;;;;;;12.18;100.00;96495.66;4953430;28;101939;-76
2023/10/15 09:56:49;;;;;;;2.83;1.07;;;;;;;12.17;100.00;96493.22;4953324;28;105243;-76
2023/10/15 09:59:17;;;;;;;1.90;1.00;;;;;;;12.14;100.00;96491.06;4969038;28;105195;-76
2023/10/15 10:01:51;;;;;;;2.60;1.07;;;;;;;12.20;100.00;96490.84;4956493;28;102058;-76
2023/10/15 10:04:40;;;;;;;2.20;0.80;;;;;;;12.11;100.00;96504.94;4952683;28;105569;-75
2023/10/15 10:07:24;;;;;;;2.00;0.77;;;;;;;12.02;100.00;96495.78;4953161;28;101809;-75
2023/10/15 10:10:34;;;;;;;1.73;0.93;;;;;;;11.92;100.00;96511.72;4953078;28;104135;-75
2023/10/15 10:13:19;;;;;;;2.67;1.20;;;;;;;11.89;100.00;96509.56;4952125;28;105206;-75
2023/10/15 10:15:54;;;;;;;2.07;1.07;;;;;;;11.71;100.00;96540.06;4953151;28;102038;-75
2023/10/15 10:18:22;;;;;;;1.50;0.80;;;;;;;10.48;100.00;96562.31;4952362;28;105366;-75
2023/10/15 10:20:51;;;;;;;1.23;0.70;;;;;;;9.94;100.00;96550.59;4952369;28;105360;-76
2023/10/15 10:23:19;;;;;;;1.87;0.70;;;;;;;9.32;100.00;96556.19;4957521;28;102424;-76
2023/10/15 10:25:49;;;;;;;2.50;0.40;;;;;;;9.17;100.00;96566.50;4952427;28;104970;-76
2023/10/15 10:28:18;;;;;;;0.90;0.70;;;;;;;8.98;100.00;96562.41;4954170;28;101840;-76
2023/10/15 10:30:53;;;;;;;2.23;0.80;;;;;;;9.03;100.00;96549.25;4952964;28;105360;-76
2023/10/15 10:33:40;;;;;;;3.93;0.90;;;;;;;8.81;100.00;96567.66;4951999;28;105532;-76
2023/10/15 10:36:14;;;;;;;0.67;0.53;;;;;;;8.79;100.00;96553.03;4952695;28;102131;-76
2023/10/15 10:38:42;;;;;;;0.70;0.70;;;;;;;8.85;100.00;96549.44;4952745;28;103984;-76
2023/10/15 10:41:13;;;;;;;1.87;1.10;;;;;;;8.83;100.00;96539.06;4951998;28;105653;-76
2023/10/15 10:43:41;;;;;;;1.63;0.70;;;;;;;8.93;100.00;96547.22;4952923;28;102309;-76
2023/10/15 10:46:09;;;;;;;0.97;0.70;;;;;;;8.95;100.00;96547.75;4971633;28;105406;-76
2023/10/15 10:48:37;;;;;;;0.70;0.70;;;;;;;8.83;100.00;96554.16;4952138;28;101899;-76
2023/10/15 10:51:22;;;;;;;0.80;0.80;;;;;;;9.03;100.00;96538.63;4952433;28;105421;-76
2023/10/15 10:54:26;;;;;;;1.33;0.70;;;;;;;9.00;100.00;96555.03;4951770;28;105600;-76
2023/10/15 10:57:06;;;;;;;2.83;1.30;;;;;;;9.12;100.00;96564.56;4952237;28;101958;-76
2023/10/15 10:59:36;;;;;;;1.77;0.70;;;;;;;9.21;100.00;96533.16;4951943;28;104958;-76
2023/10/15 11:02:06;;;;;;;1.80;0.97;;;;;;;9.22;100.00;96550.69;4951578;28;105553;-76
2023/10/15 11:04:33;;;;;;;2.83;0.70;;;;;;;9.12;100.00;96548.66;4952251;28;101906;-76
2023/10/15 11:07:03;;;;;;;1.77;1.00;;;;;;;8.74;100.00;96563.53;4953421;28;102663;-76
2023/10/15 11:09:30;;;;;;;3.43;0.90;;;;;;;8.62;100.00;96554.78;4954996;28;105134;-76
2023/10/15 11:11:58;;;;;;;5.33;0.90;;;;;;;8.66;100.00;96547.97;4952162;28;105351;-76
2023/10/15 11:14:27;;;;;;;1.07;0.93;;;;;;;8.79;100.00;96537.91;4952445;28;102818;-76
2023/10/15 11:16:55;;;;;;;0.73;0.70;;;;;;;8.80;100.00;96544.84;4952050;28;102200;-76
2023/10/15 11:19:23;;;;;;;1.90;1.00;;;;;;;8.73;100.00;96538.06;4951503;28;105386;-76
2023/10/15 11:21:52;;;;;;;2.13;1.60;;;;;;;8.91;100.00;96540.53;4951290;28;105545;-76
2023/10/15 11:24:23;;;;;;;3.93;1.87;;;;;;;8.73;100.00;96543.34;4951899;28;101985;-76
2023/10/15 11:26:50;;;;;;;4.93;2.03;;;;;;;8.76;100.00;96532.25;4951668;28;105011;-76
2023/10/15 11:29:20;;;;;;;2.73;1.30;;;;;;;8.85;100.00;96529.03;4950914;28;105394;-76
2023/10/15 11:31:48;;;;;;;1.73;1.27;;;;;;;8.83;100.00;96540.91;4955130;28;102087;-76
2023/10/15 11:34:19;;;;;;;2.10;1.63;;;;;;;8.81;100.00;96550.94;4951174;28;105170;-76
2023/10/15 11:36:48;;;;;;;1.90;1.30;;;;;;;8.80;100.00;96542.19;4951704;28;101795;-76
2023/10/15 11:39:19;;;;;;;1.50;1.10;;;;;;;8.83;100.00;96543.56;4951620;28;105449;-76
2023/10/15 11:41:51;;;;;;;1.57;1.07;;;;;;;8.89;100.00;96547.91;4951172;28;105280;-76
2023/10/15 11:44:25;;;;;;;1.23;1.00;;;;;;;8.91;100.00;96545.84;4950780;28;102165;-76
2023/10/15 11:46:54;;;;;;;2.10;1.00;;;;;;;8.97;100.00;96544.88;4950797;28;105350;-76
2023/10/15 11:49:22;;;;;;;1.47;1.10;;;;;;;8.97;100.00;96535.09;4950029;28;106263;-76